<?xml version="1.0" encoding="UTF-8" standalone="no" ?>
<gpx xmlns="http://www.topografix.com/GPX/1/1" xmlns:xsi="http://www.w3.org/2001/XMLSchema-instance" xsi:schemaLocation="http://www.topografix.com/GPX/1/1 http://www.topografix.com/GPX/1/1/gpx.xsd" version="1.1" creator="VisuGPX - https://www.visugpx.com">
  <metadata>
    <name>Domératoise 2016</name>
    <desc><![CDATA[Circuit pédestre 8 kilomètres.]]></desc>
  </metadata>
  <trk>
    <name><![CDATA[8.00_Pedestre_Domeratoise 2016]]></name>
    <trkseg>
      <trkpt lat="46.36005" lon="2.55522">
        <ele>229</ele>
        <time>2016-10-03T19:08:49Z</time>
      </trkpt>
      <trkpt lat="46.36016" lon="2.5546">
        <ele>229</ele>
        <time>2016-10-03T19:10:49Z</time>
      </trkpt>
      <trkpt lat="46.36093" lon="2.55478">
        <ele>227</ele>
        <time>2016-10-03T19:12:49Z</time>
      </trkpt>
      <trkpt lat="46.36102" lon="2.55425">
        <ele>228</ele>
        <time>2016-10-03T19:14:49Z</time>
      </trkpt>
      <trkpt lat="46.36139" lon="2.55226">
        <ele>225</ele>
        <time>2016-10-03T19:16:49Z</time>
      </trkpt>
      <trkpt lat="46.36215" lon="2.55054">
        <ele>222</ele>
        <time>2016-10-03T19:18:49Z</time>
      </trkpt>
      <trkpt lat="46.36005" lon="2.54624">
        <ele>229</ele>
        <time>2016-10-03T19:20:49Z</time>
      </trkpt>
      <trkpt lat="46.35979" lon="2.54509">
        <ele>231</ele>
        <time>2016-10-03T19:22:49Z</time>
      </trkpt>
      <trkpt lat="46.35952" lon="2.54476">
        <ele>233</ele>
        <time>2016-10-03T19:24:49Z</time>
      </trkpt>
      <trkpt lat="46.35929" lon="2.54573">
        <ele>232</ele>
        <time>2016-10-03T19:26:49Z</time>
      </trkpt>
      <trkpt lat="46.35908" lon="2.54501">
        <ele>233</ele>
        <time>2016-10-03T19:28:49Z</time>
      </trkpt>
      <trkpt lat="46.35862" lon="2.54531">
        <ele>233</ele>
        <time>2016-10-03T19:30:49Z</time>
      </trkpt>
      <trkpt lat="46.35819" lon="2.54392">
        <ele>235</ele>
        <time>2016-10-03T19:32:49Z</time>
      </trkpt>
      <trkpt lat="46.35735" lon="2.54497">
        <ele>237</ele>
        <time>2016-10-03T19:34:49Z</time>
      </trkpt>
      <trkpt lat="46.35589" lon="2.54389">
        <ele>244</ele>
        <time>2016-10-03T19:36:49Z</time>
      </trkpt>
      <trkpt lat="46.35462" lon="2.54358">
        <ele>248</ele>
        <time>2016-10-03T19:38:49Z</time>
      </trkpt>
      <trkpt lat="46.35347" lon="2.54293">
        <ele>250</ele>
        <time>2016-10-03T19:40:49Z</time>
      </trkpt>
      <trkpt lat="46.35258" lon="2.54007">
        <ele>254</ele>
        <time>2016-10-03T19:42:49Z</time>
      </trkpt>
      <trkpt lat="46.35159" lon="2.54057">
        <ele>258</ele>
        <time>2016-10-03T19:44:49Z</time>
      </trkpt>
      <trkpt lat="46.35159" lon="2.5392">
        <ele>260</ele>
        <time>2016-10-03T19:46:49Z</time>
      </trkpt>
      <trkpt lat="46.35195" lon="2.53799">
        <ele>257</ele>
        <time>2016-10-03T19:48:49Z</time>
      </trkpt>
      <trkpt lat="46.35269" lon="2.53527">
        <ele>261</ele>
        <time>2016-10-03T19:50:49Z</time>
      </trkpt>
      <trkpt lat="46.35108" lon="2.53305">
        <ele>273</ele>
        <time>2016-10-03T19:52:49Z</time>
      </trkpt>
      <trkpt lat="46.35016" lon="2.52972">
        <ele>282</ele>
        <time>2016-10-03T19:54:49Z</time>
      </trkpt>
      <trkpt lat="46.3512" lon="2.53029">
        <ele>274</ele>
        <time>2016-10-03T19:56:49Z</time>
      </trkpt>
      <trkpt lat="46.3515" lon="2.5295">
        <ele>269</ele>
        <time>2016-10-03T19:58:49Z</time>
      </trkpt>
      <trkpt lat="46.35156" lon="2.5275">
        <ele>264</ele>
        <time>2016-10-03T20:00:49Z</time>
      </trkpt>
      <trkpt lat="46.35167" lon="2.52733">
        <ele>263</ele>
        <time>2016-10-03T20:02:49Z</time>
      </trkpt>
      <trkpt lat="46.34957" lon="2.52934">
        <ele>286</ele>
        <time>2016-10-03T20:04:49Z</time>
      </trkpt>
      <trkpt lat="46.34895" lon="2.52932">
        <ele>289</ele>
        <time>2016-10-03T20:06:49Z</time>
      </trkpt>
      <trkpt lat="46.34875" lon="2.53056">
        <ele>287</ele>
        <time>2016-10-03T20:08:49Z</time>
      </trkpt>
      <trkpt lat="46.347" lon="2.5326">
        <ele>289</ele>
        <time>2016-10-03T20:10:49Z</time>
      </trkpt>
      <trkpt lat="46.34652" lon="2.53278">
        <ele>290</ele>
        <time>2016-10-03T20:12:49Z</time>
      </trkpt>
      <trkpt lat="46.34586" lon="2.53164">
        <ele>292</ele>
        <time>2016-10-03T20:14:49Z</time>
      </trkpt>
      <trkpt lat="46.34515" lon="2.53299">
        <ele>290</ele>
        <time>2016-10-03T20:16:49Z</time>
      </trkpt>
      <trkpt lat="46.34497" lon="2.53483">
        <ele>286</ele>
        <time>2016-10-03T20:18:49Z</time>
      </trkpt>
      <trkpt lat="46.34527" lon="2.53554">
        <ele>283</ele>
        <time>2016-10-03T20:20:49Z</time>
      </trkpt>
      <trkpt lat="46.34586" lon="2.53543">
        <ele>283</ele>
        <time>2016-10-03T20:22:49Z</time>
      </trkpt>
      <trkpt lat="46.34693" lon="2.53765">
        <ele>275</ele>
        <time>2016-10-03T20:24:49Z</time>
      </trkpt>
      <trkpt lat="46.34738" lon="2.53926">
        <ele>271</ele>
        <time>2016-10-03T20:26:49Z</time>
      </trkpt>
      <trkpt lat="46.34868" lon="2.54169">
        <ele>260</ele>
        <time>2016-10-03T20:28:49Z</time>
      </trkpt>
      <trkpt lat="46.34933" lon="2.54238">
        <ele>257</ele>
        <time>2016-10-03T20:30:49Z</time>
      </trkpt>
      <trkpt lat="46.34863" lon="2.54325">
        <ele>256</ele>
        <time>2016-10-03T20:32:49Z</time>
      </trkpt>
      <trkpt lat="46.34802" lon="2.54434">
        <ele>253</ele>
        <time>2016-10-03T20:34:49Z</time>
      </trkpt>
      <trkpt lat="46.34761" lon="2.54532">
        <ele>252</ele>
        <time>2016-10-03T20:36:49Z</time>
      </trkpt>
      <trkpt lat="46.34795" lon="2.54538">
        <ele>251</ele>
        <time>2016-10-03T20:38:49Z</time>
      </trkpt>
      <trkpt lat="46.34894" lon="2.54579">
        <ele>254</ele>
        <time>2016-10-03T20:40:49Z</time>
      </trkpt>
      <trkpt lat="46.34929" lon="2.54732">
        <ele>255</ele>
        <time>2016-10-03T20:42:49Z</time>
      </trkpt>
      <trkpt lat="46.35121" lon="2.5515">
        <ele>252</ele>
        <time>2016-10-03T20:44:49Z</time>
      </trkpt>
      <trkpt lat="46.35274" lon="2.55295">
        <ele>250</ele>
        <time>2016-10-03T20:46:49Z</time>
      </trkpt>
      <trkpt lat="46.35334" lon="2.55325">
        <ele>248</ele>
        <time>2016-10-03T20:48:49Z</time>
      </trkpt>
      <trkpt lat="46.35364" lon="2.55239">
        <ele>248</ele>
        <time>2016-10-03T20:50:49Z</time>
      </trkpt>
      <trkpt lat="46.35392" lon="2.55084">
        <ele>249</ele>
        <time>2016-10-03T20:52:49Z</time>
      </trkpt>
      <trkpt lat="46.35446" lon="2.55138">
        <ele>246</ele>
        <time>2016-10-03T20:54:49Z</time>
      </trkpt>
      <trkpt lat="46.35499" lon="2.55151">
        <ele>244</ele>
        <time>2016-10-03T20:56:49Z</time>
      </trkpt>
      <trkpt lat="46.35633" lon="2.55305">
        <ele>241</ele>
        <time>2016-10-03T20:58:49Z</time>
      </trkpt>
      <trkpt lat="46.35743" lon="2.55362">
        <ele>237</ele>
        <time>2016-10-03T21:00:49Z</time>
      </trkpt>
      <trkpt lat="46.36018" lon="2.55456">
        <ele>229</ele>
        <time>2016-10-03T21:02:49Z</time>
      </trkpt>
      <trkpt lat="46.36014" lon="2.55526">
        <ele>228</ele>
        <time>2016-10-03T21:04:49Z</time>
      </trkpt>
    </trkseg>
  </trk>
</gpx>